Time;durP1;ratioP1;P1;durP2;ratioP2;P2;SDS_P1;SDS_P2;PMS_P1;PMS_P2;Temp;Humidity;BMP_temperature;BMP_pressure;BME280_temperature;BME280_humidity;BME280_pressure;Samples;Min_cycle;Max_cycle;Signal;HPM_P1;HPM_P2
2022/08/31 04:00:48;;;;;;;8.73;5.60;;;;;;;21.03;65.28;100567.81;5606754;31;78751;-56
2022/08/31 04:03:53;;;;;;;8.48;5.72;;;;;;;21.03;65.28;100567.81;5582999;31;33203;-56
2022/08/31 04:06:59;;;;;;;10.75;5.65;;;;;;;20.49;66.46;100575.50;5583717;31;34284;-56
2022/08/31 04:10:05;;;;;;;9.93;5.47;;;;;;;20.50;66.51;100583.34;5584142;31;33584;-56
2022/08/31 04:13:09;;;;;;;12.68;6.43;;;;;;;20.42;66.78;100586.97;5584141;31;33150;-56
2022/08/31 04:16:22;;;;;;;8.25;4.97;;;;;;;20.45;66.78;100580.84;5583558;31;33459;-56
2022/08/31 04:19:25;;;;;;;8.50;5.57;;;;;;;20.56;66.62;100590.19;5583518;31;33136;-56
2022/08/31 04:22:28;;;;;;;8.70;5.45;;;;;;;20.56;66.61;100586.63;5583461;32;33151;-57
2022/08/31 04:25:36;;;;;;;7.47;5.40;;;;;;;20.56;66.49;100587.47;5583816;31;33165;-56
2022/08/31 04:28:38;;;;;;;8.40;5.10;;;;;;;20.54;66.37;100586.22;5583911;31;33301;-57
2022/08/31 04:31:41;;;;;;;8.80;5.55;;;;;;;20.52;66.65;100588.47;5583973;31;34033;-56
2022/08/31 04:34:43;;;;;;;8.25;5.82;;;;;;;20.50;66.71;100588.78;5583508;31;33170;-57
2022/08/31 04:37:46;;;;;;;7.87;5.18;;;;;;;20.68;66.04;100594.00;5583907;31;33348;-57
2022/08/31 04:40:49;;;;;;;12.88;4.90;;;;;;;20.60;66.27;100593.81;5583636;31;34177;-56
2022/08/31 04:43:56;;;;;;;8.35;4.82;;;;;;;20.67;65.87;100584.25;5583780;31;34180;-57
2022/08/31 04:46:58;;;;;;;7.30;4.57;;;;;;;20.82;65.05;100591.72;5573840;31;33356;-56
2022/08/31 04:50:01;;;;;;;7.82;5.10;;;;;;;20.84;65.01;100587.50;5563994;32;33640;-57
2022/08/31 04:53:03;;;;;;;10.00;4.82;;;;;;;20.92;65.14;100588.50;5572092;32;34231;-56
2022/08/31 04:56:13;;;;;;;7.43;4.62;;;;;;;20.98;65.26;100584.41;5576701;31;33743;-56
2022/08/31 04:59:17;;;;;;;7.55;4.90;;;;;;;21.03;65.06;100597.00;5576787;31;33208;-57
2022/08/31 05:02:20;;;;;;;10.60;4.75;;;;;;;21.04;64.94;100593.94;5580274;31;33410;-57
2022/08/31 05:05:23;;;;;;;8.77;5.18;;;;;;;21.06;64.72;100585.41;5580552;32;33216;-57
2022/08/31 05:08:26;;;;;;;7.82;4.78;;;;;;;21.17;64.42;100588.44;5582422;32;34310;-57
2022/08/31 05:11:29;;;;;;;6.40;4.68;;;;;;;21.22;64.38;100585.44;5570295;31;33293;-56
2022/08/31 05:14:31;;;;;;;5.70;4.90;;;;;;;21.34;64.23;100596.31;5569912;31;34529;-57
2022/08/31 05:17:34;;;;;;;12.85;4.72;;;;;;;21.34;64.10;100593.59;5565465;32;34488;-57
2022/08/31 05:20:38;;;;;;;7.62;5.20;;;;;;;21.42;64.10;100589.94;5568993;32;33581;-56
2022/08/31 05:23:41;;;;;;;6.57;4.97;;;;;;;21.60;63.43;100592.38;5569168;32;33224;-57
2022/08/31 05:26:48;;;;;;;12.35;5.43;;;;;;;21.71;63.47;100594.22;5566870;31;34723;-56
2022/08/31 05:29:50;;;;;;;10.68;5.45;;;;;;;21.82;63.69;100597.25;5565233;31;33118;-56
2022/08/31 05:32:57;;;;;;;15.27;5.95;;;;;;;22.04;63.44;100593.88;5566010;32;31800;-56
2022/08/31 05:36:01;;;;;;;15.30;6.80;;;;;;;22.06;62.12;100596.28;5566084;32;34255;-56
2022/08/31 05:39:05;;;;;;;8.80;5.72;;;;;;;22.19;62.59;100594.28;5568027;32;33657;-57
2022/08/31 05:42:07;;;;;;;15.23;6.12;;;;;;;22.25;61.18;100606.50;5564221;32;33552;-56
2022/08/31 05:45:09;;;;;;;9.13;6.03;;;;;;;22.32;61.37;100608.59;5558294;32;33683;-56
2022/08/31 05:48:13;;;;;;;10.73;5.37;;;;;;;22.31;60.68;100607.03;5564787;32;33198;-56
2022/08/31 05:51:17;;;;;;;14.45;5.97;;;;;;;22.37;61.53;100608.34;5568623;31;33863;-57
2022/08/31 05:54:20;;;;;;;9.30;6.07;;;;;;;22.53;60.33;100600.94;5568669;32;34746;-57
2022/08/31 05:57:22;;;;;;;8.35;5.85;;;;;;;22.60;60.29;100598.34;5568433;32;34136;-57
2022/08/31 06:00:29;;;;;;;11.30;5.60;;;;;;;22.77;58.38;100591.69;5567767;32;34285;-56
2022/08/31 06:03:35;;;;;;;14.13;5.78;;;;;;;22.87;58.55;100596.59;5568078;31;31887;-57
2022/08/31 06:06:38;;;;;;;11.43;6.32;;;;;;;22.88;59.55;100600.94;5569615;31;33498;-57
2022/08/31 06:09:40;;;;;;;9.30;5.68;;;;;;;22.98;59.28;100599.59;5567261;32;33747;-57
2022/08/31 06:12:45;;;;;;;13.90;6.03;;;;;;;22.86;60.40;100603.22;5568451;32;34226;-56
2022/08/31 06:15:48;;;;;;;9.80;5.97;;;;;;;22.91;60.31;100602.94;5564948;32;34204;-57
2022/08/31 06:18:53;;;;;;;11.23;5.72;;;;;;;23.01;59.75;100603.53;5559915;32;33735;-57
2022/08/31 06:21:56;;;;;;;9.73;5.45;;;;;;;22.97;60.79;100611.66;5565360;31;34248;-56
2022/08/31 06:24:59;;;;;;;14.50;5.28;;;;;;;23.01;59.54;100614.47;5565700;31;33294;-57
2022/08/31 06:28:06;;;;;;;22.52;6.45;;;;;;;23.10;59.06;100618.59;5567398;31;33053;-56
2022/08/31 06:31:37;;;;;;;12.95;5.70;;;;;;;23.18;58.41;100614.06;5567069;32;33604;-56
2022/08/31 06:34:41;;;;;;;9.15;5.28;;;;;;;23.16;57.70;100608.94;5560138;32;33249;-56
2022/08/31 06:37:44;;;;;;;18.65;6.00;;;;;;;23.11;57.90;100617.47;5568733;31;31975;-57
2022/08/31 06:40:47;;;;;;;39.22;8.05;;;;;;;23.17;58.31;100609.75;5567070;31;32172;-56
2022/08/31 06:43:51;;;;;;;10.57;4.95;;;;;;;23.29;56.91;100611.56;5564976;32;33242;-56
2022/08/31 06:46:54;;;;;;;8.23;4.75;;;;;;;23.21;56.80;100611.41;5567598;31;33561;-57
2022/08/31 06:49:56;;;;;;;9.13;4.78;;;;;;;23.41;55.38;100603.16;5559820;32;34474;-57
2022/08/31 06:52:59;;;;;;;7.57;4.60;;;;;;;23.35;54.16;100613.63;5568425;32;34998;-56
2022/08/31 06:56:05;;;;;;;8.30;4.78;;;;;;;23.33;54.36;100615.12;5567802;32;34144;-56
2022/08/31 06:59:25;;;;;;;7.30;4.60;;;;;;;23.48;54.21;100618.94;5567605;31;33288;-57
2022/08/31 07:02:30;;;;;;;12.95;5.35;;;;;;;23.48;53.32;100611.53;5565740;31;33346;-57
2022/08/31 07:05:33;;;;;;;11.20;5.15;;;;;;;23.49;53.84;100617.78;5566621;32;33488;-56
2022/08/31 07:08:36;;;;;;;12.73;5.20;;;;;;;23.54;54.07;100625.69;5568115;31;33279;-56
2022/08/31 07:11:42;;;;;;;9.80;4.75;;;;;;;23.60;52.69;100622.31;5566197;31;33150;-57
2022/08/31 07:14:46;;;;;;;10.32;4.70;;;;;;;23.68;53.16;100624.06;5565879;32;33640;-56
2022/08/31 07:17:57;;;;;;;26.80;5.32;;;;;;;23.79;52.22;100632.47;5568884;32;34120;-57
2022/08/31 07:21:13;;;;;;;11.82;4.80;;;;;;;23.78;52.98;100627.37;5566342;31;33356;-57
2022/08/31 07:24:21;;;;;;;7.45;4.43;;;;;;;23.77;51.68;100628.50;5564330;32;33385;-57
2022/08/31 07:27:24;;;;;;;11.30;4.60;;;;;;;23.78;51.62;100628.16;5567536;31;33376;-57
2022/08/31 07:30:27;;;;;;;9.68;4.90;;;;;;;23.85;51.10;100627.50;5564385;31;32006;-57
2022/08/31 07:33:37;;;;;;;9.68;4.60;;;;;;;23.92;51.26;100622.91;5562185;32;33787;-56
2022/08/31 07:43:25;;;;;;;15.82;5.18;;;;;;;24.11;50.13;100618.56;5567494;32;33365;-56
2022/08/31 07:46:30;;;;;;;15.32;4.28;;;;;;;24.26;51.91;100631.31;5565978;31;33355;-57
2022/08/31 07:49:34;;;;;;;5.75;3.70;;;;;;;24.33;48.55;100625.94;5568277;32;33409;-57
2022/08/31 07:52:46;;;;;;;15.25;5.03;;;;;;;24.35;47.30;100618.16;5567177;32;34646;-57
2022/08/31 07:55:55;;;;;;;7.47;3.67;;;;;;;24.45;46.51;100619.50;5554970;32;32123;-57
2022/08/31 07:58:58;;;;;;;6.30;3.72;;;;;;;24.46;46.10;100623.03;5561113;32;33560;-56
2022/08/31 08:02:03;;;;;;;15.30;4.32;;;;;;;24.39;45.44;100613.50;5558087;32;33210;-56
2022/08/31 08:05:20;;;;;;;4.62;3.50;;;;;;;24.47;48.73;100610.91;5565380;31;32166;-57
2022/08/31 08:08:28;;;;;;;10.32;3.70;;;;;;;24.58;46.30;100612.66;5567147;31;34220;-57
2022/08/31 08:11:37;;;;;;;10.52;3.87;;;;;;;24.65;48.46;100606.47;5566335;32;33750;-56
2022/08/31 08:14:40;;;;;;;8.52;4.40;;;;;;;24.64;45.26;100601.38;5555079;31;33389;-57
2022/08/31 08:17:43;;;;;;;8.80;3.55;;;;;;;24.61;44.97;100602.91;5548287;32;34041;-57
2022/08/31 08:20:46;;;;;;;10.35;3.97;;;;;;;24.64;45.70;100599.44;5555763;32;33645;-57
2022/08/31 08:23:51;;;;;;;12.25;4.18;;;;;;;24.69;45.40;100593.59;5564870;32;34432;-57
2022/08/31 08:26:54;;;;;;;38.60;7.20;;;;;;;24.80;44.95;100588.25;5564849;31;34996;-57
2022/08/31 08:29:57;;;;;;;12.23;3.67;;;;;;;24.89;44.72;100599.75;5566027;31;34273;-57
2022/08/31 08:33:02;;;;;;;7.20;3.50;;;;;;;24.91;44.12;100593.91;5565994;32;32517;-57
2022/08/31 08:36:07;;;;;;;13.82;4.00;;;;;;;24.91;44.35;100591.94;5563962;31;34145;-57
2022/08/31 08:39:10;;;;;;;30.33;5.50;;;;;;;24.97;45.04;100590.47;5564597;32;34214;-57
2022/08/31 08:42:16;;;;;;;36.65;6.12;;;;;;;24.92;44.34;100587.25;5564809;32;33326;-57
2022/08/31 08:45:19;;;;;;;20.42;4.65;;;;;;;25.02;44.69;100589.34;5565897;31;33444;-57
2022/08/31 08:48:26;;;;;;;11.68;4.25;;;;;;;25.08;44.07;100585.87;5564456;32;33649;-57
2022/08/31 08:51:34;;;;;;;9.43;3.67;;;;;;;25.12;43.53;100585.97;5558975;32;33828;-57
2022/08/31 08:54:44;;;;;;;8.88;4.25;;;;;;;25.08;43.65;100579.63;5562740;31;34130;-57
2022/08/31 08:57:48;;;;;;;5.03;3.50;;;;;;;25.17;44.79;100588.38;5569515;31;33161;-57
2022/08/31 09:00:53;;;;;;;16.87;4.13;;;;;;;25.18;42.72;100575.44;5567528;31;33336;-57
2022/08/31 09:04:29;;;;;;;7.27;3.50;;;;;;;25.25;44.74;100579.06;5560104;32;33432;-57
2022/08/31 09:08:08;;;;;;;16.12;4.30;;;;;;;25.19;42.74;100572.31;5566164;32;33117;-57
2022/08/31 09:11:28;;;;;;;8.35;4.22;;;;;;;25.17;43.48;100573.88;5560293;32;33502;-57
2022/08/31 09:14:30;;;;;;;10.55;3.67;;;;;;;25.22;42.16;100568.81;5565756;32;33313;-57
2022/08/31 09:17:55;;;;;;;13.88;4.07;;;;;;;25.28;43.21;100556.34;5567732;32;33463;-57
2022/08/31 09:21:19;;;;;;;7.18;3.40;;;;;;;25.28;42.98;100564.59;5558858;32;33660;-57
2022/08/31 09:24:26;;;;;;;6.18;3.28;;;;;;;25.34;42.94;100556.03;5558479;32;34426;-57
2022/08/31 09:27:45;;;;;;;8.02;3.47;;;;;;;25.39;42.46;100559.19;5568473;32;34422;-57
2022/08/31 09:30:51;;;;;;;17.65;4.20;;;;;;;25.42;42.15;100543.94;5558744;32;34319;-57
2022/08/31 09:33:54;;;;;;;11.85;3.85;;;;;;;25.40;42.85;100549.03;5558629;32;34391;-57
2022/08/31 09:37:14;;;;;;;13.57;4.30;;;;;;;25.41;44.60;100540.41;5566501;32;33636;-57
2022/08/31 09:40:30;;;;;;;60.33;10.00;;;;;;;25.52;42.38;100543.25;5561132;32;33623;-57
2022/08/31 09:43:37;;;;;;;10.38;3.85;;;;;;;25.50;42.62;100532.66;5566767;32;33277;-57
2022/08/31 09:46:52;;;;;;;7.32;3.90;;;;;;;25.61;43.61;100541.00;5568136;32;34290;-57
2022/08/31 09:49:56;;;;;;;5.22;3.17;;;;;;;25.67;44.35;100531.25;5569030;32;34194;-56
2022/08/31 09:56:57;;;;;;;10.10;3.40;;;;;;;25.84;41.95;100534.56;5560189;32;34464;-57
2022/08/31 10:00:00;;;;;;;6.82;3.80;;;;;;;25.83;42.13;100532.97;5561973;32;33754;-57
2022/08/31 10:03:22;;;;;;;7.75;3.45;;;;;;;25.81;40.77;100524.34;5564244;32;34280;-57
2022/08/31 10:06:43;;;;;;;6.78;3.95;;;;;;;25.76;44.05;100520.75;5560263;32;34373;-57
2022/08/31 10:09:59;;;;;;;4.22;3.33;;;;;;;25.83;43.06;100517.31;5561198;32;33623;-57
2022/08/31 10:13:09;;;;;;;;;;;;;;;25.76;40.39;100506.19;5561730;32;33975;-57
2022/08/31 10:16:34;;;;;;;6.68;3.47;;;;;;;25.81;40.02;100513.34;5559152;32;33828;-57
2022/08/31 10:19:54;;;;;;;6.68;3.80;;;;;;;25.90;40.46;100514.59;5561848;32;34420;-57
2022/08/31 10:23:07;;;;;;;10.73;3.67;;;;;;;26.02;40.36;100503.28;5568102;32;33673;-57
2022/08/31 10:26:17;;;;;;;10.68;3.97;;;;;;;26.02;39.28;100491.50;5556814;32;33825;-57
2022/08/31 10:29:53;;;;;;;6.45;3.58;;;;;;;26.05;42.30;100490.75;5562930;32;33823;-57
2022/08/31 10:33:10;;;;;;;6.68;3.33;;;;;;;26.12;41.68;100488.03;5555776;32;33385;-57
2022/08/31 10:36:14;;;;;;;5.78;3.30;;;;;;;26.12;41.06;100488.03;5559765;32;33956;-56
2022/08/31 10:39:31;;;;;;;5.43;3.53;;;;;;;26.19;39.65;100484.56;5564864;32;32947;-57
2022/08/31 10:42:40;;;;;;;7.32;3.70;;;;;;;26.16;39.55;100475.13;5548566;32;34304;-57
2022/08/31 10:45:47;;;;;;;11.52;3.40;;;;;;;26.30;40.23;100476.38;5547925;32;34560;-57
2022/08/31 10:48:53;;;;;;;5.37;3.20;;;;;;;26.20;39.02;100464.94;5549300;32;33967;-57
2022/08/31 10:52:20;;;;;;;5.12;3.78;;;;;;;26.15;40.10;100464.53;5560581;32;34338;-57
2022/08/31 10:55:57;;;;;;;8.38;3.78;;;;;;;26.22;40.67;100457.13;5569021;32;34453;-57
2022/08/31 10:59:17;;;;;;;4.87;3.80;;;;;;;26.31;42.07;100458.72;5568922;32;33776;-57
2022/08/31 11:02:31;;;;;;;5.25;3.20;;;;;;;26.30;39.29;100457.16;5569186;32;34338;-57
2022/08/31 11:05:41;;;;;;;6.07;3.80;;;;;;;26.31;39.85;100465.00;5569072;32;33668;-57
2022/08/31 11:08:52;;;;;;;6.87;3.83;;;;;;;26.40;39.88;100461.91;5568168;32;34383;-57
2022/08/31 11:12:03;;;;;;;6.85;3.55;;;;;;;26.37;40.04;100452.47;5568759;32;33674;-57
2022/08/31 11:15:31;;;;;;;6.95;3.58;;;;;;;26.49;40.00;100454.13;5569175;32;33230;-57
2022/08/31 11:18:56;;;;;;;10.40;4.12;;;;;;;26.57;38.96;100452.19;5569194;32;33738;-56
2022/08/31 11:22:11;;;;;;;9.02;4.00;;;;;;;26.41;40.15;100444.25;5569199;32;33704;-57
2022/08/31 11:25:46;;;;;;;8.20;4.10;;;;;;;26.41;43.06;100445.03;5568252;32;32362;-56
2022/08/31 11:29:08;;;;;;;8.75;3.80;;;;;;;26.48;44.29;100447.03;5568039;32;33650;-57
2022/08/31 11:32:21;;;;;;;4.10;3.70;;;;;;;26.54;42.32;100439.22;5568698;32;34382;-57
2022/08/31 11:35:48;;;;;;;9.65;3.75;;;;;;;26.66;39.24;100434.16;5568541;32;33851;-57
2022/08/31 11:39:00;;;;;;;10.02;3.70;;;;;;;26.69;42.35;100425.12;5568735;32;33862;-57
2022/08/31 11:42:26;;;;;;;7.50;3.40;;;;;;;26.75;39.32;100428.28;5568315;32;34040;-57
2022/08/31 11:45:31;;;;;;;6.93;3.70;;;;;;;26.79;38.22;100431.03;5538581;31;33550;-57
2022/08/31 11:48:50;;;;;;;6.18;3.22;;;;;;;26.81;38.79;100428.69;5568542;32;34392;-57
2022/08/31 11:51:54;;;;;;;9.27;3.70;;;;;;;26.85;40.94;100424.75;5568444;32;33700;-57
2022/08/31 11:55:24;;;;;;;8.40;3.58;;;;;;;26.92;40.11;100418.47;5568606;32;33705;-57
2022/08/31 11:58:50;;;;;;;5.50;3.35;;;;;;;26.96;41.81;100424.78;5568328;32;33608;-57
2022/08/31 12:01:55;;;;;;;7.07;3.37;;;;;;;27.00;38.52;100416.53;5568633;32;33673;-57
2022/08/31 12:05:01;;;;;;;6.18;3.60;;;;;;;27.05;39.31;100419.72;5568111;32;33735;-57
2022/08/31 12:08:06;;;;;;;6.82;3.78;;;;;;;27.12;38.26;100424.44;5568657;32;34318;-57
2022/08/31 12:11:21;;;;;;;7.60;3.85;;;;;;;27.07;38.63;100411.81;5568475;32;34242;-57
2022/08/31 12:14:35;;;;;;;6.73;3.70;;;;;;;27.17;39.82;100413.81;5567842;32;34287;-57
2022/08/31 12:17:55;;;;;;;5.35;3.58;;;;;;;27.19;38.89;100418.19;5567532;32;33296;-57
2022/08/31 12:25:16;;;;;;;7.70;3.40;;;;;;;27.23;39.02;100413.44;5570861;32;33842;-57
2022/08/31 12:28:37;;;;;;;6.50;3.55;;;;;;;27.03;37.71;100405.53;5570954;32;33881;-57
2022/08/31 12:31:40;;;;;;;9.10;4.03;;;;;;;26.94;38.19;100403.16;5570695;32;33197;-57
2022/08/31 12:34:54;;;;;;;5.53;3.30;;;;;;;26.85;38.17;100396.47;5570725;32;33735;-57
2022/08/31 12:37:58;;;;;;;5.72;3.67;;;;;;;26.90;38.65;100396.87;5570739;32;33681;-56
2022/08/31 12:41:02;;;;;;;16.08;3.97;;;;;;;26.84;39.70;100397.66;5570384;32;34323;-57
2022/08/31 12:44:04;;;;;;;5.50;3.72;;;;;;;26.81;38.55;100398.44;5570425;32;33811;-57
2022/08/31 12:47:35;;;;;;;6.30;3.28;;;;;;;26.77;40.30;100397.66;5570266;32;33719;-57
2022/08/31 12:50:45;;;;;;;7.32;3.55;;;;;;;26.84;39.39;100386.66;5570535;32;33787;-57
2022/08/31 12:53:51;;;;;;;6.25;3.53;;;;;;;26.88;39.75;100379.19;5570625;32;33718;-57
2022/08/31 12:57:31;;;;;;;5.97;3.37;;;;;;;26.96;40.00;100375.28;5570113;32;33637;-57
2022/08/31 13:00:38;;;;;;;5.43;3.60;;;;;;;26.95;38.61;100368.19;5570336;32;33597;-57
2022/08/31 13:03:46;;;;;;;7.50;3.58;;;;;;;26.92;38.99;100367.03;5569985;32;34057;-57
2022/08/31 13:07:11;;;;;;;10.77;3.62;;;;;;;26.95;39.25;100365.44;5570170;32;34366;-57
2022/08/31 13:10:29;;;;;;;5.12;3.58;;;;;;;26.99;39.13;100370.94;5570412;32;34320;-57
2022/08/31 13:13:31;;;;;;;6.28;3.53;;;;;;;27.02;38.87;100376.47;5569834;32;33807;-57
2022/08/31 13:16:37;;;;;;;13.57;3.90;;;;;;;27.13;37.47;100369.03;5569951;32;34451;-57
2022/08/31 13:19:42;;;;;;;;;;;;;;;27.10;38.99;100369.00;5570357;32;33607;-57
2022/08/31 13:23:01;;;;;;;14.40;3.95;;;;;;;27.07;42.17;100367.03;5570087;32;33938;-57
2022/08/31 13:26:21;;;;;;;9.02;3.75;;;;;;;27.16;38.61;100367.47;5570081;32;33661;-57
2022/08/31 13:29:24;;;;;;;7.70;3.87;;;;;;;27.17;38.30;100367.06;5570145;32;33684;-57
2022/08/31 13:32:33;;;;;;;5.22;4.03;;;;;;;27.13;41.26;100360.00;5569911;32;34481;-57
2022/08/31 13:35:36;;;;;;;7.22;3.50;;;;;;;27.09;40.04;100359.97;5568973;32;34332;-57
2022/08/31 13:38:57;;;;;;;7.57;3.78;;;;;;;27.11;38.46;100365.06;5570148;32;33414;-57
2022/08/31 13:42:11;;;;;;;6.72;3.87;;;;;;;27.11;38.79;100356.81;5568920;32;34376;-57
2022/08/31 13:45:26;;;;;;;6.20;3.12;;;;;;;27.08;40.21;100361.12;5569835;32;33710;-57
2022/08/31 13:48:30;;;;;;;;;;;;;;;27.22;39.13;100356.81;5570386;32;33615;-57
2022/08/31 13:51:37;;;;;;;17.27;4.03;;;;;;;27.15;37.56;100357.59;5569474;32;34509;-57
2022/08/31 13:54:40;;;;;;;17.90;3.92;;;;;;;27.14;38.81;100347.78;5569503;32;33792;-57
2022/08/31 13:58:02;;;;;;;6.37;3.58;;;;;;;27.28;37.87;100344.25;5569826;32;34538;-57
2022/08/31 14:01:23;;;;;;;6.62;3.80;;;;;;;27.22;37.82;100335.63;5569675;32;33631;-57
2022/08/31 14:04:47;;;;;;;7.47;3.83;;;;;;;27.20;38.91;100339.94;5569704;32;34468;-57
2022/08/31 14:07:54;;;;;;;10.73;4.00;;;;;;;27.08;38.73;100341.84;5569483;32;34285;-57
2022/08/31 14:10:56;;;;;;;7.00;3.80;;;;;;;27.07;40.71;100334.78;5569597;32;33618;-57
2022/08/31 14:14:16;;;;;;;11.52;4.05;;;;;;;26.99;38.81;100335.97;5568994;32;33689;-57
2022/08/31 14:17:25;;;;;;;11.18;3.62;;;;;;;27.00;39.46;100340.28;5569577;32;33248;-57
2022/08/31 14:20:37;;;;;;;21.77;4.85;;;;;;;26.99;38.04;100338.75;5569290;32;33734;-57
2022/08/31 14:23:41;;;;;;;22.85;4.65;;;;;;;26.98;38.07;100337.16;5569385;32;34473;-57
2022/08/31 14:26:43;;;;;;;51.35;5.32;;;;;;;26.96;38.80;100333.25;5569427;32;34416;-58
2022/08/31 14:29:46;;;;;;;30.85;5.05;;;;;;;26.92;38.46;100331.28;5569523;32;33734;-57
2022/08/31 14:32:48;;;;;;;6.40;3.78;;;;;;;26.93;39.50;100329.31;5568671;32;34306;-57
2022/08/31 14:35:54;;;;;;;9.07;3.87;;;;;;;26.90;39.42;100335.59;5569514;32;34430;-57
2022/08/31 14:38:57;;;;;;;;;;;;;;;26.86;39.48;100329.31;5569996;32;34422;-57
2022/08/31 14:42:02;;;;;;;7.75;3.30;;;;;;;26.86;38.60;100327.34;5569387;32;34620;-57
2022/08/31 14:45:05;;;;;;;10.32;3.85;;;;;;;26.87;39.23;100328.13;5568483;32;34302;-57
2022/08/31 14:48:09;;;;;;;7.93;3.65;;;;;;;26.99;39.34;100329.66;5569127;32;33666;-57
2022/08/31 14:51:11;;;;;;;10.40;4.00;;;;;;;26.95;39.18;100321.41;5569150;32;34316;-57
2022/08/31 14:54:17;;;;;;;17.25;4.68;;;;;;;27.01;38.23;100319.06;5569233;32;34672;-57
